Panamax Applause — 5BVD2 — position and weather

sailwx.info

Track history (hours):
 
Tides and Currents Weather Stations Pressure Air Temp Water Temp Dewpoint Dewpoint Depression Visibility Wind Speed Wind Dir Waves Ship Positions

Panamax Applause

Last reported at 2014-Sep-13 21:32 UTC. Time now 2014-Sep-24 04:27 UTC.
Position N 01°17' E 103°59'.
Warning: this ship's position is 10 days out of date.

Length 225 m; draft 12 m.

Type: Cargo ship. MMSI: 209577000.

Date/timePositionNaut miles runAvg speedWind from/ knotsBaromVisibWave heightAir tempDewpointWater temp
2014-Sep-13 21:32N 01°17' E 103°59'0 0.1
2014-Sep-13 20:29N 01°17' E 103°59'0 0.0
2014-Sep-13 19:26N 01°17' E 103°59'0 0.0
2014-Sep-13 18:26N 01°17' E 103°59'0 0.1
2014-Sep-13 17:32N 01°17' E 103°59'0 0.1
2014-Sep-13 15:32N 01°17' E 103°59'0 0.1
2014-Sep-13 14:32N 01°17' E 103°59'0 0.1
2014-Sep-13 13:26N 01°17' E 103°60'0 0.0
2014-Sep-13 12:32N 01°17' E 103°60'0 0.2
2014-Sep-13 11:33N 01°17' E 103°60'3 2.6
2014-Sep-13 10:33N 01°15' E 103°58'4 4.1
2014-Sep-13 09:33N 01°13' E 103°55'6 6.3
2014-Sep-13 08:33N 01°10' E 103°49'5 5.3
2014-Sep-13 07:33N 01°07' E 103°45'  
Track history (hours):
 
Tides and Currents Weather Stations Pressure Air Temp Water Temp Dewpoint Dewpoint Depression Visibility Wind Speed Wind Dir Waves Ship Positions

Panamax Applause

Last reported at 2014-Sep-13 21:32 UTC. Time now 2014-Sep-24 04:27 UTC.
Position N 01°17' E 103°59'.
Warning: this ship's position is 10 days out of date.

Length 225 m; draft 12 m.

Type: Cargo ship. MMSI: 209577000.

Date/timePositionNaut miles runAvg speedWind from/ knotsBaromVisibWave heightAir tempDewpointWater temp
2014-Sep-13 21:32N 01°17' E 103°59'0 0.1
2014-Sep-13 20:29N 01°17' E 103°59'0 0.0
2014-Sep-13 19:26N 01°17' E 103°59'0 0.0
2014-Sep-13 18:26N 01°17' E 103°59'0 0.1
2014-Sep-13 17:32N 01°17' E 103°59'0 0.1
2014-Sep-13 15:32N 01°17' E 103°59'0 0.1
2014-Sep-13 14:32N 01°17' E 103°59'0 0.1
2014-Sep-13 13:26N 01°17' E 103°60'0 0.0
2014-Sep-13 12:32N 01°17' E 103°60'0 0.2
2014-Sep-13 11:33N 01°17' E 103°60'3 2.6
2014-Sep-13 10:33N 01°15' E 103°58'4 4.1
2014-Sep-13 09:33N 01°13' E 103°55'6 6.3
2014-Sep-13 08:33N 01°10' E 103°49'5 5.3
2014-Sep-13 07:33N 01°07' E 103°45'  

Dump ship's entire track history